Time;durP1;ratioP1;P1;durP2;ratioP2;P2;SDS_P1;SDS_P2;PMS_P1;PMS_P2;Temp;Humidity;BMP_temperature;BMP_pressure;BME280_temperature;BME280_humidity;BME280_pressure;Samples;Min_cycle;Max_cycle;Signal;HPM_P1;HPM_P2
2023/11/19 00:00:36;;;;;;;20.58;12.50;;;14.00;99.90;;;;;;5020124;27;20504;-75
2023/11/19 00:03:02;;;;;;;17.00;11.35;;;13.90;99.90;;;;;;5022502;27;20058;-73
2023/11/19 00:05:27;;;;;;;16.15;11.50;;;13.90;99.90;;;;;;5033141;27;20462;-72
2023/11/19 00:07:53;;;;;;;22.63;11.40;;;14.00;99.90;;;;;;5016288;28;20030;-75
2023/11/19 00:10:19;;;;;;;14.32;10.10;;;13.90;99.90;;;;;;5030375;27;20105;-74
2023/11/19 00:12:46;;;;;;;14.25;9.55;;;14.00;99.90;;;;;;5021005;27;20431;-73
2023/11/19 00:15:13;;;;;;;13.48;11.02;;;13.90;99.90;;;;;;5026944;27;20057;-69
2023/11/19 00:17:45;;;;;;;16.90;11.25;;;14.00;99.90;;;;;;5029567;27;20029;-75
2023/11/19 00:20:12;;;;;;;19.48;11.93;;;14.10;99.90;;;;;;5030640;27;20086;-73
2023/11/19 00:22:38;;;;;;;18.17;12.35;;;14.10;99.90;;;;;;5027728;27;20036;-74
2023/11/19 00:25:05;;;;;;;13.40;10.25;;;14.10;99.90;;;;;;5025914;27;20038;-72
2023/11/19 00:27:31;;;;;;;12.93;10.00;;;14.10;99.90;;;;;;5018901;28;20070;-69
2023/11/19 00:29:57;;;;;;;16.15;10.52;;;14.10;99.90;;;;;;5029089;27;20061;-71
2023/11/19 00:32:23;;;;;;;15.43;10.50;;;14.10;99.90;;;;;;5020039;27;20014;-67
2023/11/19 00:34:48;;;;;;;15.10;9.75;;;14.10;99.90;;;;;;5020571;27;20031;-67
2023/11/19 00:37:15;;;;;;;15.23;9.57;;;14.10;99.90;;;;;;5028618;27;20030;-66
2023/11/19 00:39:41;;;;;;;16.73;10.35;;;14.10;99.90;;;;;;5033296;27;20029;-70
2023/11/19 00:42:07;;;;;;;16.98;9.73;;;14.00;99.90;;;;;;5021622;27;20030;-70
2023/11/19 00:44:33;;;;;;;18.13;10.82;;;14.10;99.90;;;;;;5016944;27;20090;-70
2023/11/19 00:47:00;;;;;;;17.63;8.70;;;14.10;99.90;;;;;;5029735;27;20085;-68
2023/11/19 00:49:25;;;;;;;20.55;10.93;;;14.00;99.90;;;;;;5029324;27;20041;-73
2023/11/19 00:51:51;;;;;;;20.80;9.73;;;14.10;99.90;;;;;;5017565;27;20410;-67
2023/11/19 00:54:17;;;;;;;19.05;9.10;;;14.10;99.90;;;;;;5019098;27;20036;-67
2023/11/19 00:56:42;;;;;;;16.13;7.50;;;14.10;99.90;;;;;;5025575;27;20057;-67
2023/11/19 00:59:08;;;;;;;17.02;8.68;;;14.10;99.90;;;;;;5023670;27;20022;-70
2023/11/19 01:01:34;;;;;;;18.50;8.15;;;14.10;99.90;;;;;;5027786;27;20371;-69
2023/11/19 01:03:59;;;;;;;22.55;9.35;;;14.10;99.90;;;;;;5023712;27;20041;-67
2023/11/19 01:06:29;;;;;;;19.17;7.68;;;14.10;99.90;;;;;;5022538;27;20015;-67
2023/11/19 01:08:56;;;;;;;19.23;6.35;;;14.10;99.90;;;;;;5025230;27;20029;-71
2023/11/19 01:11:23;;;;;;;17.25;6.70;;;14.10;99.90;;;;;;5037659;27;20023;-72
2023/11/19 01:13:49;;;;;;;18.40;6.32;;;14.10;99.90;;;;;;5025944;27;20029;-73
2023/11/19 01:16:15;;;;;;;27.73;7.80;;;14.10;99.90;;;;;;5023217;27;20402;-67
2023/11/19 01:18:41;;;;;;;29.65;7.82;;;14.10;99.90;;;;;;5025588;27;20519;-68
2023/11/19 01:21:07;;;;;;;23.90;7.43;;;14.10;99.90;;;;;;5019447;28;20462;-70
2023/11/19 01:23:33;;;;;;;23.73;7.32;;;14.20;99.90;;;;;;5034611;27;20026;-68
2023/11/19 01:25:59;;;;;;;18.05;6.70;;;14.10;99.90;;;;;;5021939;27;20034;-67
2023/11/19 01:28:25;;;;;;;16.35;6.45;;;14.10;99.90;;;;;;5022888;28;20025;-72
2023/11/19 01:30:51;;;;;;;28.92;6.63;;;14.10;99.90;;;;;;5017324;28;20116;-72
2023/11/19 01:33:17;;;;;;;27.08;6.97;;;14.10;99.90;;;;;;5025498;27;20030;-71
2023/11/19 01:35:42;;;;;;;24.50;7.03;;;14.10;99.90;;;;;;5042669;27;20367;-68
2023/11/19 01:38:08;;;;;;;23.63;6.47;;;14.10;99.90;;;;;;5029852;27;20116;-67
2023/11/19 01:40:36;;;;;;;31.33;7.72;;;14.10;99.90;;;;;;5017907;28;20074;-70
2023/11/19 01:43:03;;;;;;;23.45;6.22;;;14.10;99.90;;;;;;5032496;28;20112;-71
2023/11/19 01:45:30;;;;;;;25.48;6.57;;;14.20;99.90;;;;;;5029656;27;20021;-70
2023/11/19 01:47:57;;;;;;;23.67;6.22;;;14.10;99.90;;;;;;5031482;27;20494;-69
2023/11/19 01:50:27;;;;;;;29.67;6.82;;;14.10;99.90;;;;;;5029610;28;20108;-71
2023/11/19 01:52:53;;;;;;;26.75;6.25;;;14.10;99.90;;;;;;5025823;28;20037;-74
2023/11/19 01:55:20;;;;;;;27.80;6.40;;;14.00;99.90;;;;;;5035927;28;20086;-73
2023/11/19 01:57:48;;;;;;;22.55;5.95;;;14.10;99.90;;;;;;5032082;28;20089;-67
2023/11/19 02:00:14;;;;;;;25.80;6.68;;;14.10;99.90;;;;;;5029822;28;20038;-67
2023/11/19 02:02:40;;;;;;;28.80;6.68;;;14.10;99.90;;;;;;5023251;28;20474;-68
2023/11/19 02:05:07;;;;;;;31.50;6.80;;;14.00;99.90;;;;;;5023810;28;20034;-70
2023/11/19 02:07:32;;;;;;;27.20;6.20;;;14.00;99.90;;;;;;5022811;28;20026;-67
2023/11/19 02:10:00;;;;;;;24.65;5.55;;;14.00;99.90;;;;;;5033012;27;20038;-67
2023/11/19 02:12:28;;;;;;;26.77;5.53;;;13.90;99.90;;;;;;5012801;28;20475;-70
2023/11/19 02:14:54;;;;;;;25.60;6.03;;;14.00;99.90;;;;;;5028170;28;20021;-68
2023/11/19 02:17:27;;;;;;;27.55;5.93;;;14.00;99.90;;;;;;5024777;28;20230;-69
2023/11/19 02:19:53;;;;;;;31.25;5.97;;;13.90;99.90;;;;;;5022642;28;20034;-68
2023/11/19 02:22:19;;;;;;;26.95;5.72;;;13.90;99.90;;;;;;5022324;28;20237;-67
2023/11/19 02:24:49;;;;;;;23.90;5.00;;;13.90;99.90;;;;;;5018649;28;20037;-67
2023/11/19 02:27:26;;;;;;;23.58;5.25;;;13.90;99.90;;;;;;5035214;28;20035;-69
2023/11/19 02:29:52;;;;;;;26.33;5.82;;;13.90;99.90;;;;;;5027778;28;20022;-67
2023/11/19 02:32:17;;;;;;;32.50;6.10;;;13.90;99.90;;;;;;5039823;27;20113;-68
2023/11/19 02:34:43;;;;;;;30.23;6.97;;;13.90;99.90;;;;;;5033158;28;20061;-68
2023/11/19 02:37:09;;;;;;;30.00;6.00;;;14.00;99.90;;;;;;5023549;28;20033;-67
2023/11/19 02:39:36;;;;;;;27.58;7.03;;;14.00;99.90;;;;;;5015394;28;20419;-67
2023/11/19 02:42:02;;;;;;;30.35;6.50;;;13.90;99.90;;;;;;5035467;28;20074;-67
2023/11/19 02:44:30;;;;;;;21.48;5.38;;;13.90;99.90;;;;;;5036683;28;20041;-67
2023/11/19 02:46:59;;;;;;;21.80;5.15;;;13.90;99.90;;;;;;5016933;28;20026;-67
2023/11/19 02:49:25;;;;;;;24.63;6.40;;;13.80;99.90;;;;;;5015015;28;20038;-69
2023/11/19 02:51:50;;;;;;;31.75;6.30;;;13.70;99.90;;;;;;5019659;28;20363;-69
2023/11/19 02:54:16;;;;;;;33.45;5.78;;;13.70;99.90;;;;;;5028709;28;20120;-67
2023/11/19 02:56:47;;;;;;;35.22;6.55;;;13.80;99.90;;;;;;5030048;28;21023;-67
2023/11/19 02:59:27;;;;;;;30.17;5.72;;;13.60;99.90;;;;;;5028709;28;20085;-67
2023/11/19 03:01:53;;;;;;;42.22;6.53;;;13.60;99.90;;;;;;5022743;28;20038;-67
2023/11/19 03:04:20;;;;;;;27.60;6.30;;;13.70;99.90;;;;;;5030840;27;20030;-67
2023/11/19 03:06:46;;;;;;;32.95;7.00;;;13.70;99.90;;;;;;5026940;27;20363;-70
2023/11/19 03:09:12;;;;;;;35.47;7.03;;;13.60;99.90;;;;;;5037447;27;20448;-68
2023/11/19 03:11:38;;;;;;;35.80;6.30;;;13.70;99.90;;;;;;5040326;27;20033;-68
2023/11/19 03:14:04;;;;;;;30.02;6.50;;;13.60;99.90;;;;;;5031610;27;20064;-69
2023/11/19 03:16:30;;;;;;;42.88;5.85;;;13.60;99.90;;;;;;5027446;27;20033;-71
2023/11/19 03:18:56;;;;;;;30.63;5.88;;;13.60;99.90;;;;;;5024990;27;20495;-72
2023/11/19 03:21:31;;;;;;;42.60;7.28;;;13.60;99.90;;;;;;5033597;27;20109;-70
2023/11/19 03:24:00;;;;;;;34.92;6.38;;;13.70;99.90;;;;;;5033017;27;20034;-70
2023/11/19 03:26:27;;;;;;;39.88;6.93;;;13.70;99.90;;;;;;5033995;27;20055;-70
2023/11/19 03:28:53;;;;;;;39.95;7.07;;;13.70;99.90;;;;;;5033703;27;20026;-70
2023/11/19 03:31:18;;;;;;;33.75;7.13;;;13.60;99.90;;;;;;5039717;27;20481;-70
2023/11/19 03:33:45;;;;;;;33.92;6.35;;;13.60;99.90;;;;;;5017529;28;20153;-70
2023/11/19 03:36:10;;;;;;;46.63;6.82;;;13.50;99.90;;;;;;5036419;27;20036;-70
2023/11/19 03:38:36;;;;;;;33.83;6.05;;;13.60;99.90;;;;;;5016147;28;20382;-72
2023/11/19 03:41:11;;;;;;;40.97;7.03;;;13.50;99.90;;;;;;5029406;27;20023;-70
2023/11/19 03:43:37;;;;;;;43.83;6.50;;;13.50;99.90;;;;;;5026022;27;20032;-73
2023/11/19 03:46:02;;;;;;;40.00;7.10;;;13.60;99.90;;;;;;5034161;27;20100;-70
2023/11/19 03:48:28;;;;;;;40.53;6.25;;;13.60;99.90;;;;;;5025343;28;20082;-70
2023/11/19 03:50:54;;;;;;;44.30;6.55;;;13.70;99.90;;;;;;5030426;27;20034;-67
2023/11/19 03:53:19;;;;;;;33.05;6.57;;;13.60;99.90;;;;;;5030173;27;20018;-69
2023/11/19 03:55:45;;;;;;;34.00;6.05;;;13.60;99.90;;;;;;5037364;27;20082;-67
2023/11/19 03:58:12;;;;;;;29.50;5.45;;;13.50;99.90;;;;;;5022799;27;20022;-67
2023/11/19 04:00:37;;;;;;;34.45;5.82;;;13.50;99.90;;;;;;5028381;27;20041;-68
2023/11/19 04:03:03;;;;;;;36.00;6.60;;;13.40;99.90;;;;;;5027777;27;20026;-70
2023/11/19 04:05:28;;;;;;;39.90;7.05;;;13.40;99.90;;;;;;5025717;27;20387;-70
2023/11/19 04:07:54;;;;;;;34.53;5.82;;;13.40;99.90;;;;;;5028349;27;20715;-70
2023/11/19 04:10:22;;;;;;;38.78;5.78;;;13.50;99.90;;;;;;5019740;27;20033;-70
2023/11/19 04:12:47;;;;;;;38.92;6.47;;;13.50;99.90;;;;;;5028236;27;20096;-70
2023/11/19 04:15:14;;;;;;;42.47;6.53;;;13.60;99.90;;;;;;5031593;27;20064;-73
2023/11/19 04:17:40;;;;;;;43.33;7.05;;;13.50;99.90;;;;;;5016398;27;20025;-73
2023/11/19 04:20:10;;;;;;;38.05;6.43;;;13.50;99.90;;;;;;5024251;27;20485;-71
2023/11/19 04:22:36;;;;;;;45.58;7.65;;;13.50;99.90;;;;;;5022020;27;20022;-70
2023/11/19 04:25:01;;;;;;;42.72;7.40;;;13.50;99.90;;;;;;5036099;27;20033;-71
2023/11/19 04:27:27;;;;;;;37.25;7.22;;;13.50;99.90;;;;;;5036261;27;20064;-70
2023/11/19 04:29:53;;;;;;;45.00;7.82;;;13.40;99.90;;;;;;5020376;27;20032;-71
2023/11/19 04:32:19;;;;;;;47.40;7.18;;;13.40;99.90;;;;;;5036571;27;20037;-71
2023/11/19 04:34:45;;;;;;;40.15;7.18;;;13.40;99.90;;;;;;5020512;28;20024;-69
2023/11/19 04:37:11;;;;;;;38.17;6.18;;;13.40;99.90;;;;;;5027338;27;20029;-71
2023/11/19 04:39:37;;;;;;;32.70;6.10;;;13.40;99.90;;;;;;5031069;27;20036;-70
2023/11/19 04:42:04;;;;;;;41.17;6.40;;;13.40;99.90;;;;;;5024030;27;20069;-70
2023/11/19 04:44:30;;;;;;;37.78;6.75;;;13.40;99.90;;;;;;5024297;27;20034;-71
2023/11/19 04:46:56;;;;;;;35.38;7.45;;;13.40;99.90;;;;;;5027192;27;20040;-70
2023/11/19 04:49:22;;;;;;;35.72;5.80;;;13.40;99.90;;;;;;5024496;28;20480;-70
2023/11/19 04:51:47;;;;;;;49.72;6.65;;;13.50;99.90;;;;;;5030870;27;20033;-73
2023/11/19 04:54:13;;;;;;;40.40;6.25;;;13.40;99.90;;;;;;5032128;27;20386;-69
2023/11/19 04:56:39;;;;;;;35.53;6.70;;;13.40;99.90;;;;;;5026482;27;20086;-70
2023/11/19 04:59:06;;;;;;;23.15;4.57;;;13.40;99.90;;;;;;5027443;27;20475;-70
2023/11/19 05:01:35;;;;;;;44.08;8.20;;;13.50;99.90;;;;;;5019330;27;20034;-69
2023/11/19 05:04:01;;;;;;;39.47;8.38;;;13.50;99.90;;;;;;5026853;27;20052;-71
2023/11/19 05:06:31;;;;;;;30.85;5.63;;;13.50;99.90;;;;;;5028588;27;20371;-73
2023/11/19 05:08:58;;;;;;;38.67;6.60;;;13.50;99.90;;;;;;5020388;28;20029;-70
2023/11/19 05:11:24;;;;;;;36.85;6.70;;;13.40;99.90;;;;;;5028264;27;20525;-70
2023/11/19 05:13:50;;;;;;;38.97;6.97;;;13.40;99.90;;;;;;5015263;27;20105;-69
2023/11/19 05:16:17;;;;;;;34.78;5.93;;;13.40;99.90;;;;;;5026720;27;20018;-70
2023/11/19 05:18:43;;;;;;;41.95;6.85;;;13.40;99.90;;;;;;5018893;27;20117;-71
2023/11/19 05:21:09;;;;;;;31.88;5.45;;;13.40;99.90;;;;;;5021318;28;20482;-71
2023/11/19 05:23:35;;;;;;;30.58;6.28;;;13.30;99.90;;;;;;5016906;27;20065;-72
2023/11/19 05:26:01;;;;;;;36.88;6.80;;;13.30;99.90;;;;;;5026858;27;20382;-71
2023/11/19 05:28:27;;;;;;;27.67;5.22;;;13.30;99.90;;;;;;5022370;28;20064;-72
2023/11/19 05:30:52;;;;;;;32.00;5.93;;;13.30;99.90;;;;;;5034257;27;20075;-70
2023/11/19 05:33:18;;;;;;;38.80;6.28;;;13.30;99.90;;;;;;5032563;27;20539;-70
2023/11/19 05:35:44;;;;;;;40.55;6.80;;;13.30;99.90;;;;;;5019927;27;20033;-72
2023/11/19 05:38:09;;;;;;;41.15;7.05;;;13.20;99.90;;;;;;5027026;27;20061;-73
2023/11/19 05:40:35;;;;;;;35.30;6.95;;;13.20;99.90;;;;;;5037133;27;20022;-72
2023/11/19 05:43:01;;;;;;;39.23;6.60;;;13.20;99.90;;;;;;5025452;28;20466;-70
2023/11/19 05:45:27;;;;;;;40.67;6.43;;;13.10;99.90;;;;;;5028149;28;20510;-70
2023/11/19 05:47:53;;;;;;;39.13;5.97;;;13.10;99.90;;;;;;5017923;28;20117;-70
2023/11/19 05:50:19;;;;;;;49.40;7.28;;;13.00;99.90;;;;;;5034770;28;20387;-72
2023/11/19 05:52:46;;;;;;;49.80;7.03;;;13.00;99.90;;;;;;5027197;27;20049;-70
2023/11/19 05:55:12;;;;;;;37.97;6.57;;;13.10;99.90;;;;;;5026918;28;20386;-70
2023/11/19 05:57:39;;;;;;;40.75;7.32;;;13.00;99.90;;;;;;5023900;28;20018;-74
2023/11/19 06:00:10;;;;;;;45.20;6.60;;;12.90;99.90;;;;;;5019666;28;20061;-71
2023/11/19 06:02:38;;;;;;;38.33;6.57;;;13.00;99.90;;;;;;5027459;28;20017;-70
2023/11/19 06:05:05;;;;;;;41.63;6.97;;;12.90;99.90;;;;;;5019315;28;20034;-74
2023/11/19 06:07:32;;;;;;;39.15;6.82;;;12.90;99.90;;;;;;5029590;28;20424;-74
2023/11/19 06:09:57;;;;;;;43.53;6.68;;;12.80;99.90;;;;;;5018089;28;20033;-73
2023/11/19 06:12:23;;;;;;;42.75;7.03;;;12.80;99.90;;;;;;5037082;28;20474;-71
2023/11/19 06:14:48;;;;;;;40.55;7.60;;;12.80;99.90;;;;;;5019665;28;20021;-70
2023/11/19 06:17:14;;;;;;;36.70;6.28;;;12.80;99.90;;;;;;5024904;28;20026;-70
2023/11/19 06:19:40;;;;;;;38.55;6.63;;;12.80;99.90;;;;;;5037749;28;20102;-70
2023/11/19 06:22:06;;;;;;;43.35;6.78;;;12.80;99.90;;;;;;5027049;28;20056;-74
2023/11/19 06:24:32;;;;;;;41.92;7.45;;;12.70;99.90;;;;;;5031032;28;20531;-70
2023/11/19 06:26:58;;;;;;;37.25;7.05;;;12.80;99.90;;;;;;5019531;28;20030;-73
2023/11/19 06:29:24;;;;;;;36.90;6.75;;;12.70;99.90;;;;;;5025303;28;20074;-71
2023/11/19 06:31:50;;;;;;;35.40;6.05;;;12.70;99.90;;;;;;5026364;28;20025;-71
2023/11/19 06:34:16;;;;;;;41.13;6.28;;;12.60;99.90;;;;;;5032583;28;20021;-70
2023/11/19 06:36:43;;;;;;;52.95;7.43;;;12.60;99.90;;;;;;5020318;28;20420;-72
2023/11/19 06:39:10;;;;;;;38.55;7.47;;;12.60;99.90;;;;;;5031951;27;20022;-72
2023/11/19 06:41:38;;;;;;;42.00;11.10;;;12.50;99.90;;;;;;5025970;27;20100;-71
2023/11/19 06:44:04;;;;;;;43.10;7.13;;;12.50;99.90;;;;;;5027603;27;20394;-72
2023/11/19 06:46:31;;;;;;;43.90;6.38;;;12.50;99.90;;;;;;5047362;27;20102;-71
2023/11/19 06:48:57;;;;;;;44.33;6.82;;;12.60;99.90;;;;;;5028846;27;20044;-72
2023/11/19 06:51:24;;;;;;;38.90;7.40;;;12.50;99.90;;;;;;5028034;27;20113;-71
2023/11/19 06:53:50;;;;;;;47.63;7.82;;;12.50;99.90;;;;;;5034138;27;20021;-71
2023/11/19 06:56:23;;;;;;;50.75;8.00;;;12.50;99.90;;;;;;5022464;27;20049;-74
2023/11/19 06:58:50;;;;;;;37.25;7.28;;;12.40;99.90;;;;;;5026067;28;20025;-71
2023/11/19 07:01:16;;;;;;;46.35;7.30;;;12.40;99.90;;;;;;5031232;27;20048;-72
2023/11/19 07:03:42;;;;;;;39.20;8.10;;;12.50;99.90;;;;;;5037600;27;20049;-71
2023/11/19 07:06:08;;;;;;;38.75;7.07;;;12.50;99.90;;;;;;5032074;27;20543;-72
2023/11/19 07:08:34;;;;;;;41.03;7.07;;;12.40;99.90;;;;;;5035045;27;20060;-71
2023/11/19 07:11:00;;;;;;;39.50;7.70;;;12.40;99.90;;;;;;5026302;27;20388;-71
2023/11/19 07:13:27;;;;;;;46.47;7.28;;;12.40;99.90;;;;;;5030163;27;20026;-72
2023/11/19 07:15:54;;;;;;;51.92;8.57;;;12.40;99.90;;;;;;5029507;27;20025;-73
2023/11/19 07:18:24;;;;;;;44.55;8.00;;;12.40;99.90;;;;;;5027639;27;20045;-72
2023/11/19 07:20:49;;;;;;;44.53;7.32;;;12.40;99.90;;;;;;5039405;27;20470;-71
2023/11/19 07:23:18;;;;;;;44.95;6.72;;;12.40;99.90;;;;;;5027006;27;20049;-73
2023/11/19 07:25:47;;;;;;;38.95;7.38;;;12.30;99.90;;;;;;5029167;27;20025;-71
2023/11/19 07:28:16;;;;;;;39.92;7.20;;;12.40;99.90;;;;;;5028893;27;20021;-73
2023/11/19 07:30:42;;;;;;;44.05;6.38;;;12.30;99.90;;;;;;5030571;27;20087;-72
2023/11/19 07:33:08;;;;;;;44.97;7.72;;;12.30;99.90;;;;;;5030092;27;20025;-73
2023/11/19 07:35:33;;;;;;;40.33;7.55;;;12.40;99.90;;;;;;5043888;27;20025;-72
2023/11/19 07:37:59;;;;;;;46.05;7.40;;;12.40;99.90;;;;;;5031561;27;20112;-72
2023/11/19 07:40:25;;;;;;;42.78;6.82;;;12.40;99.90;;;;;;5042571;27;20018;-73
2023/11/19 07:42:51;;;;;;;37.55;6.38;;;12.40;99.90;;;;;;5040870;27;20463;-72
2023/11/19 07:45:17;;;;;;;40.15;6.53;;;12.40;99.90;;;;;;5027499;27;20112;-78
2023/11/19 07:47:46;;;;;;;42.88;7.28;;;12.50;99.90;;;;;;5020646;27;20022;-73
2023/11/19 07:50:14;;;;;;;37.63;7.15;;;12.50;99.90;;;;;;5028061;27;20030;-76
2023/11/19 07:52:39;;;;;;;37.72;7.07;;;12.50;99.90;;;;;;5020715;28;20025;-74
2023/11/19 07:55:05;;;;;;;52.33;7.15;;;12.40;99.90;;;;;;5032809;27;20466;-74
2023/11/19 07:57:31;;;;;;;43.15;6.78;;;12.40;99.90;;;;;;5038318;27;20061;-75
2023/11/19 08:00:01;;;;;;;38.20;6.93;;;12.50;99.90;;;;;;5028898;27;20790;-75
2023/11/19 08:02:27;;;;;;;36.47;6.10;;;12.50;99.90;;;;;;5030563;27;20083;-76
2023/11/19 08:04:54;;;;;;;49.35;8.20;;;12.50;99.90;;;;;;5026362;27;20041;-76
2023/11/19 08:07:23;;;;;;;40.10;7.55;;;12.50;99.90;;;;;;5035951;27;20029;-74
2023/11/19 08:09:49;;;;;;;42.60;8.20;;;12.50;99.90;;;;;;5041043;27;20060;-74
2023/11/19 08:12:15;;;;;;;42.58;7.30;;;12.50;99.90;;;;;;5036412;27;20027;-73
2023/11/19 08:14:41;;;;;;;36.88;6.85;;;12.60;99.90;;;;;;5025927;27;20040;-73
2023/11/19 08:17:07;;;;;;;40.80;7.43;;;12.60;99.90;;;;;;5016837;28;20374;-76
2023/11/19 08:19:33;;;;;;;40.65;7.13;;;12.60;99.90;;;;;;5030836;27;20049;-73
2023/11/19 08:21:58;;;;;;;48.10;7.15;;;12.60;99.90;;;;;;5022184;28;20025;-77
2023/11/19 08:24:24;;;;;;;40.38;8.05;;;12.60;99.90;;;;;;5021192;27;20094;-73
2023/11/19 08:26:49;;;;;;;44.03;7.47;;;12.60;99.90;;;;;;5021430;27;20390;-72
2023/11/19 08:29:15;;;;;;;45.72;7.43;;;12.70;99.90;;;;;;5029242;27;20561;-74
2023/11/19 08:31:42;;;;;;;34.80;6.53;;;12.70;99.90;;;;;;5028682;27;20034;-73
2023/11/19 08:34:11;;;;;;;48.58;7.75;;;12.80;99.90;;;;;;5021173;27;20022;-74
2023/11/19 08:36:37;;;;;;;37.80;7.47;;;12.70;99.90;;;;;;5019565;28;20033;-72
2023/11/19 08:39:03;;;;;;;42.60;7.72;;;12.70;99.90;;;;;;5031322;27;20027;-71
2023/11/19 08:41:29;;;;;;;39.28;7.57;;;12.80;99.90;;;;;;5036467;27;20017;-72
2023/11/19 08:43:54;;;;;;;43.38;7.22;;;12.80;99.90;;;;;;5026274;27;20492;-77
2023/11/19 08:46:20;;;;;;;41.20;7.53;;;12.90;99.90;;;;;;5028961;28;20372;-77
2023/11/19 08:48:46;;;;;;;41.15;7.20;;;12.70;99.90;;;;;;5031511;27;20458;-75
2023/11/19 08:51:12;;;;;;;38.90;7.10;;;12.80;99.90;;;;;;5020159;27;20537;-76
2023/11/19 08:53:38;;;;;;;43.10;7.35;;;12.90;99.90;;;;;;5023820;27;20037;-77
2023/11/19 08:56:04;;;;;;;43.58;7.72;;;13.00;99.90;;;;;;5014690;28;20377;-73
2023/11/19 08:58:30;;;;;;;35.33;7.25;;;13.00;99.90;;;;;;5015498;27;20022;-77
2023/11/19 09:00:56;;;;;;;41.22;6.85;;;13.00;99.90;;;;;;5006374;27;20040;-74
2023/11/19 09:03:22;;;;;;;39.22;6.80;;;13.10;99.90;;;;;;5014967;27;20036;-77
2023/11/19 09:05:48;;;;;;;43.60;7.38;;;13.10;99.90;;;;;;5025705;28;20037;-73
2023/11/19 09:08:13;;;;;;;32.08;6.63;;;13.20;99.90;;;;;;5030254;27;20029;-76
2023/11/19 09:10:39;;;;;;;38.65;7.93;;;13.20;99.90;;;;;;5036487;27;20038;-73
2023/11/19 09:13:05;;;;;;;41.58;7.10;;;13.20;99.90;;;;;;5038372;27;20033;-76
2023/11/19 09:15:31;;;;;;;40.20;6.57;;;13.30;99.90;;;;;;5034168;27;20393;-77
2023/11/19 09:17:56;;;;;;;40.03;6.63;;;13.30;99.90;;;;;;5038423;28;20083;-77
2023/11/19 09:20:22;;;;;;;40.00;7.80;;;13.40;99.90;;;;;;5040853;27;20025;-75
2023/11/19 09:22:48;;;;;;;47.08;7.32;;;13.50;99.90;;;;;;5036288;27;20033;-73
2023/11/19 09:25:17;;;;;;;44.45;7.68;;;13.40;99.90;;;;;;5026400;27;20133;-75
2023/11/19 09:27:43;;;;;;;30.95;6.45;;;13.50;99.90;;;;;;5036749;27;20025;-74
2023/11/19 09:30:10;;;;;;;40.83;7.10;;;13.50;99.90;;;;;;5023474;28;20508;-74
2023/11/19 09:32:35;;;;;;;35.22;6.57;;;13.50;99.90;;;;;;5031171;28;20073;-75
2023/11/19 09:35:02;;;;;;;35.63;6.57;;;13.60;99.90;;;;;;5035154;28;20517;-72
2023/11/19 09:37:28;;;;;;;36.30;6.82;;;13.70;99.90;;;;;;5035105;27;20370;-73
2023/11/19 09:39:54;;;;;;;34.17;6.70;;;13.70;99.90;;;;;;5030884;27;20033;-73
2023/11/19 09:42:20;;;;;;;28.85;6.20;;;13.70;99.90;;;;;;5023491;28;20501;-74
2023/11/19 09:44:47;;;;;;;38.08;6.85;;;13.80;99.90;;;;;;5033484;27;20037;-75
2023/11/19 09:47:16;;;;;;;43.25;6.80;;;13.80;99.90;;;;;;5022484;27;20021;-73
2023/11/19 09:49:43;;;;;;;37.35;7.75;;;13.80;99.90;;;;;;5031774;27;20055;-72
2023/11/19 09:52:09;;;;;;;34.20;6.55;;;13.80;99.90;;;;;;5037579;28;20355;-72
2023/11/19 09:54:35;;;;;;;31.25;6.82;;;13.90;99.90;;;;;;5027772;28;20030;-76
2023/11/19 09:57:05;;;;;;;38.03;7.90;;;13.90;99.90;;;;;;5027914;28;20026;-73
2023/11/19 09:59:31;;;;;;;42.75;7.63;;;14.00;99.90;;;;;;5021175;28;20025;-72
2023/11/19 10:01:59;;;;;;;42.78;6.18;;;13.90;99.90;;;;;;5027044;28;20084;-74
2023/11/19 10:04:29;;;;;;;34.08;5.93;;;14.00;99.90;;;;;;5032377;28;20038;-73
2023/11/19 10:06:55;;;;;;;40.40;6.38;;;14.00;99.90;;;;;;5025825;28;20041;-73
2023/11/19 10:09:20;;;;;;;39.35;6.03;;;14.20;99.90;;;;;;5029867;28;20052;-75
2023/11/19 10:11:46;;;;;;;38.72;6.47;;;14.20;99.90;;;;;;5024942;28;20104;-75
2023/11/19 10:14:14;;;;;;;34.97;6.05;;;14.20;99.90;;;;;;5028332;27;20097;-74
2023/11/19 10:16:41;;;;;;;28.45;6.20;;;14.20;99.90;;;;;;5034221;27;20032;-73
2023/11/19 10:19:06;;;;;;;37.17;6.05;;;14.20;99.90;;;;;;5022773;27;20486;-76
2023/11/19 10:21:35;;;;;;;33.60;7.25;;;14.30;99.90;;;;;;5036183;27;20044;-75
2023/11/19 10:24:01;;;;;;;34.42;6.40;;;14.40;99.90;;;;;;5029066;28;20112;-73
2023/11/19 10:26:27;;;;;;;31.35;6.90;;;14.50;99.90;;;;;;5038121;27;20106;-72
2023/11/19 10:28:55;;;;;;;27.92;5.90;;;14.40;99.90;;;;;;5035971;27;20032;-73
2023/11/19 10:31:25;;;;;;;29.00;6.03;;;14.40;99.90;;;;;;5028261;27;20029;-73
2023/11/19 10:33:51;;;;;;;37.88;7.63;;;14.40;99.90;;;;;;5033632;27;20053;-74
2023/11/19 10:36:17;;;;;;;34.35;6.32;;;14.40;99.90;;;;;;5028828;28;20071;-73
2023/11/19 10:38:57;;;;;;;40.53;6.35;;;14.40;99.90;;;;;;5030877;28;20078;-73
2023/11/19 10:41:32;;;;;;;40.67;6.20;;;14.40;99.90;;;;;;5029947;27;20041;-74
2023/11/19 10:43:59;;;;;;;32.22;7.32;;;14.40;99.90;;;;;;5035590;27;20086;-72
2023/11/19 10:46:40;;;;;;;30.98;6.10;;;14.30;99.90;;;;;;5039462;27;20085;-77
2023/11/19 10:49:06;;;;;;;29.98;6.10;;;14.30;99.90;;;;;;5034557;27;20232;-74
2023/11/19 10:51:32;;;;;;;30.13;5.70;;;14.30;99.90;;;;;;5037140;27;20101;-76
2023/11/19 10:54:06;;;;;;;33.03;5.32;;;14.30;99.90;;;;;;5029176;27;20057;-79
2023/11/19 10:56:33;;;;;;;27.80;5.47;;;14.20;99.90;;;;;;5034575;27;20537;-73
2023/11/19 10:59:03;;;;;;;40.00;6.53;;;14.30;99.90;;;;;;5040346;27;20041;-77
2023/11/19 11:01:50;;;;;;;30.92;5.70;;;14.30;99.90;;;;;;5032371;27;20474;-74
2023/11/19 11:04:23;;;;;;;27.65;6.22;;;14.30;99.90;;;;;;5036847;27;20390;-75
2023/11/19 11:06:50;;;;;;;27.85;5.88;;;14.40;99.90;;;;;;5037838;27;20106;-76
2023/11/19 11:09:16;;;;;;;26.90;6.13;;;14.30;99.90;;;;;;5035719;27;20032;-76
2023/11/19 11:11:47;;;;;;;28.08;6.03;;;14.40;99.90;;;;;;5037733;27;20024;-76
2023/11/19 11:14:16;;;;;;;25.83;5.80;;;14.40;99.90;;;;;;5027691;27;20069;-75
2023/11/19 11:16:48;;;;;;;34.30;6.30;;;14.40;99.90;;;;;;5031850;27;20022;-73
2023/11/19 11:19:16;;;;;;;23.17;5.17;;;14.40;99.90;;;;;;5036560;27;20108;-74
2023/11/19 11:21:46;;;;;;;27.52;5.32;;;14.50;99.90;;;;;;5032233;27;20803;-72
2023/11/19 11:24:21;;;;;;;34.80;6.38;;;14.50;99.90;;;;;;5033442;27;20048;-71
2023/11/19 11:27:12;;;;;;;30.75;5.20;;;14.40;99.90;;;;;;5026749;28;22678;-72
2023/11/19 11:29:58;;;;;;;28.85;4.65;;;14.40;99.90;;;;;;5029318;27;20030;-72
2023/11/19 11:33:02;;;;;;;26.38;5.57;;;14.30;99.90;;;;;;5027088;27;20025;-72
2023/11/19 11:35:52;;;;;;;22.55;5.25;;;14.40;99.90;;;;;;5033292;27;20109;-74
2023/11/19 11:38:25;;;;;;;28.35;5.45;;;14.30;99.90;;;;;;5037872;27;20045;-71
2023/11/19 11:41:20;;;;;;;29.40;5.60;;;14.30;99.90;;;;;;5028562;27;20082;-77
2023/11/19 11:43:55;;;;;;;30.33;5.78;;;14.20;99.90;;;;;;5023315;27;20064;-71
2023/11/19 11:46:33;;;;;;;31.27;5.35;;;14.20;99.90;;;;;;5039478;27;20023;-70
2023/11/19 11:49:03;;;;;;;29.88;5.40;;;14.20;99.90;;;;;;5025147;27;20026;-76
2023/11/19 11:51:44;;;;;;;29.85;5.22;;;14.20;99.90;;;;;;5031591;27;20029;-69
2023/11/19 11:54:10;;;;;;;29.05;5.70;;;14.30;99.90;;;;;;5025801;27;20025;-69
2023/11/19 11:56:39;;;;;;;31.27;5.53;;;14.30;99.90;;;;;;5032868;27;20480;-77
2023/11/19 11:59:18;;;;;;;27.55;5.47;;;14.20;99.90;;;;;;5023106;28;20533;-70
2023/11/19 12:02:07;;;;;;;24.00;5.78;;;14.20;99.90;;;;;;5036027;27;20064;-70
2023/11/19 12:04:37;;;;;;;31.65;5.30;;;14.20;99.90;;;;;;5034576;27;20040;-70
2023/11/19 12:07:13;;;;;;;36.75;6.32;;;14.30;99.90;;;;;;5038421;27;20021;-80
2023/11/19 12:09:47;;;;;;;28.80;5.35;;;14.30;99.90;;;;;;5023687;28;20030;-77
2023/11/19 12:12:20;;;;;;;37.38;6.78;;;14.20;99.90;;;;;;5025860;27;20037;-73
2023/11/19 12:14:58;;;;;;;34.42;5.03;;;14.10;99.90;;;;;;5031171;27;20466;-78
2023/11/19 12:17:50;;;;;;;32.63;6.20;;;14.30;99.90;;;;;;5035154;28;20023;-77
2023/11/19 12:20:24;;;;;;;29.73;5.47;;;14.30;99.90;;;;;;5022809;27;20045;-72
2023/11/19 12:22:54;;;;;;;28.80;5.93;;;14.30;99.90;;;;;;5031696;27;20048;-78
2023/11/19 12:25:21;;;;;;;38.30;5.40;;;14.30;99.90;;;;;;5037164;27;20025;-74
2023/11/19 12:27:49;;;;;;;20.88;5.05;;;14.20;99.90;;;;;;5024053;27;20021;-72
2023/11/19 12:30:22;;;;;;;27.75;5.78;;;14.30;99.90;;;;;;5026142;27;20033;-72
2023/11/19 12:32:49;;;;;;;25.95;5.07;;;14.30;99.90;;;;;;5019796;28;20061;-72
2023/11/19 12:35:15;;;;;;;24.08;4.38;;;14.40;99.90;;;;;;5035089;27;20037;-72
2023/11/19 12:37:43;;;;;;;30.08;5.18;;;14.40;99.90;;;;;;5030368;28;20029;-72